Time;durP1;ratioP1;P1;durP2;ratioP2;P2;SDS_P1;SDS_P2;PMS_P1;PMS_P2;Temp;Humidity;BMP_temperature;BMP_pressure;BME280_temperature;BME280_humidity;BME280_pressure;Samples;Min_cycle;Max_cycle;Signal;HPM_P1;HPM_P2
2021/12/15 00:01:29;;;;;;;31.08;23.15;;;8.40;71.20;;;;;;5085095;28;20039;-78
2021/12/15 00:03:55;;;;;;;30.70;20.92;;;8.40;71.80;;;;;;5073558;28;20025;-78
2021/12/15 00:06:22;;;;;;;29.45;20.63;;;8.40;71.80;;;;;;5075198;28;20032;-77
2021/12/15 00:08:54;;;;;;;26.33;19.15;;;8.40;71.80;;;;;;5090956;28;20032;-78
2021/12/15 00:11:22;;;;;;;26.17;19.38;;;8.40;71.80;;;;;;5082039;28;20476;-78
2021/12/15 00:13:52;;;;;;;24.98;18.20;;;8.40;71.80;;;;;;5083714;28;20377;-77
2021/12/15 00:16:18;;;;;;;28.67;21.42;;;8.40;71.90;;;;;;5074897;28;20028;-77
2021/12/15 00:18:44;;;;;;;27.30;19.08;;;8.30;71.70;;;;;;5090829;28;20174;-78
2021/12/15 00:21:19;;;;;;;28.15;18.83;;;8.30;71.90;;;;;;5085907;28;20028;-78
2021/12/15 00:23:46;;;;;;;23.75;17.48;;;8.40;72.00;;;;;;5089247;28;20036;-78
2021/12/15 00:26:12;;;;;;;26.95;18.25;;;8.40;72.50;;;;;;5079865;28;20037;-77
2021/12/15 00:28:39;;;;;;;22.30;16.88;;;8.40;71.80;;;;;;5072039;28;20024;-78
2021/12/15 00:31:05;;;;;;;21.13;16.30;;;8.50;71.60;;;;;;5078503;28;20360;-78
2021/12/15 00:33:33;;;;;;;26.65;17.95;;;8.50;71.60;;;;;;5086974;28;20039;-77
2021/12/15 00:35:59;;;;;;;23.70;16.63;;;8.50;71.60;;;;;;5082767;28;20095;-78
2021/12/15 00:38:25;;;;;;;20.60;15.02;;;8.50;71.60;;;;;;5089214;28;20433;-78
2021/12/15 00:40:51;;;;;;;22.08;15.82;;;8.50;71.40;;;;;;5059409;28;20123;-77
2021/12/15 00:43:17;;;;;;;20.50;15.75;;;8.50;71.40;;;;;;5088115;28;20021;-78
2021/12/15 00:45:44;;;;;;;19.52;15.07;;;8.50;71.60;;;;;;5065567;28;20032;-78
2021/12/15 00:48:10;;;;;;;23.83;16.13;;;8.40;71.40;;;;;;5080100;28;20476;-78
2021/12/15 00:50:37;;;;;;;24.65;16.73;;;8.40;71.60;;;;;;5076141;28;20039;-78
2021/12/15 00:53:04;;;;;;;21.67;15.85;;;8.30;71.70;;;;;;5085738;28;20044;-78
2021/12/15 00:55:30;;;;;;;24.45;15.80;;;8.20;71.90;;;;;;5087891;28;20016;-78
2021/12/15 00:57:58;;;;;;;22.35;15.88;;;8.10;72.20;;;;;;5082630;28;20465;-78
2021/12/15 01:00:35;;;;;;;24.85;16.63;;;8.10;72.20;;;;;;5082171;28;20025;-78
2021/12/15 01:03:02;;;;;;;23.30;16.92;;;8.10;72.30;;;;;;5043418;28;20036;-78
2021/12/15 01:05:33;;;;;;;22.25;16.13;;;8.20;72.20;;;;;;5067732;28;20032;-78
2021/12/15 01:08:00;;;;;;;23.45;17.02;;;8.20;72.10;;;;;;5085352;28;20112;-78
2021/12/15 01:10:40;;;;;;;24.25;15.98;;;8.30;72.10;;;;;;5090877;28;20020;-78
2021/12/15 01:21:19;;;;;;;19.85;15.25;;;8.40;71.90;;;;;;5042107;28;20043;-78
2021/12/15 01:23:44;;;;;;;18.25;13.90;;;8.40;72.00;;;;;;5085507;28;20032;-78
2021/12/15 01:26:14;;;;;;;19.95;14.90;;;8.40;72.00;;;;;;5087369;28;20067;-78
2021/12/15 01:28:41;;;;;;;19.23;13.77;;;8.40;71.90;;;;;;5076372;28;20028;-78
2021/12/15 01:31:09;;;;;;;19.08;13.95;;;8.40;71.80;;;;;;5089062;28;20056;-78
2021/12/15 01:33:36;;;;;;;17.50;13.57;;;8.40;71.80;;;;;;5080794;28;20330;-78
2021/12/15 01:36:04;;;;;;;18.75;13.52;;;8.40;71.80;;;;;;5080953;28;20396;-77
2021/12/15 01:38:33;;;;;;;16.23;12.60;;;8.40;71.90;;;;;;5088134;28;20406;-78
2021/12/15 01:41:00;;;;;;;18.25;13.40;;;8.40;72.00;;;;;;5076018;28;20055;-77
2021/12/15 01:46:53;;;;;;;19.60;13.68;;;8.40;72.00;;;;;;5086005;28;20027;-77
2021/12/15 01:49:21;;;;;;;18.48;12.60;;;8.40;71.90;;;;;;5065678;28;20487;-78
2021/12/15 01:51:48;;;;;;;17.98;12.98;;;8.30;71.80;;;;;;5082691;28;20040;-78
2021/12/15 01:54:16;;;;;;;19.90;13.35;;;8.30;71.80;;;;;;5059602;28;20116;-78
2021/12/15 01:56:42;;;;;;;18.88;14.20;;;8.30;71.90;;;;;;5071500;28;20111;-78
2021/12/15 01:59:09;;;;;;;16.98;13.18;;;8.30;71.60;;;;;;5059965;28;20036;-78
2021/12/15 02:01:35;;;;;;;16.70;12.82;;;8.30;71.70;;;;;;5084761;28;20024;-78
2021/12/15 02:04:02;;;;;;;18.40;13.15;;;8.20;71.70;;;;;;5083995;28;20353;-78
2021/12/15 02:06:28;;;;;;;17.10;12.50;;;8.20;71.90;;;;;;5077726;28;20028;-78
2021/12/15 02:08:54;;;;;;;17.25;12.77;;;8.20;72.00;;;;;;5088950;28;20055;-78
2021/12/15 02:11:20;;;;;;;19.00;13.70;;;8.20;72.10;;;;;;5073136;28;20031;-78
2021/12/15 02:13:46;;;;;;;14.15;11.88;;;8.20;72.10;;;;;;5072857;28;20372;-78
2021/12/15 02:16:12;;;;;;;18.02;12.13;;;8.20;72.10;;;;;;5085578;28;20108;-78
2021/12/15 02:18:45;;;;;;;16.67;12.57;;;8.20;72.20;;;;;;5087460;28;20027;-78
2021/12/15 02:21:11;;;;;;;15.95;12.07;;;8.20;72.20;;;;;;5061901;28;20024;-78
2021/12/15 02:23:43;;;;;;;17.63;12.48;;;8.20;72.20;;;;;;5069836;28;20024;-78
2021/12/15 02:26:14;;;;;;;14.75;11.43;;;8.20;72.10;;;;;;5066894;28;20033;-78
2021/12/15 02:28:42;;;;;;;16.98;12.50;;;8.30;72.30;;;;;;5078118;28;20030;-77
2021/12/15 02:31:33;;;;;;;18.10;11.73;;;8.30;72.20;;;;;;5061233;28;20409;-78
2021/12/15 02:39:19;;;;;;;17.38;13.13;;;8.00;72.40;;;;;;5070786;28;20047;-78
2021/12/15 02:41:47;;;;;;;21.60;15.80;;;7.90;72.50;;;;;;5087272;28;20047;-78
2021/12/15 02:44:16;;;;;;;19.90;14.88;;;7.70;73.30;;;;;;5089117;28;20028;-78
2021/12/15 02:46:45;;;;;;;22.23;15.47;;;7.60;73.30;;;;;;5073149;28;20024;-78
2021/12/15 02:49:14;;;;;;;17.83;14.30;;;7.60;73.20;;;;;;5062248;28;20677;-78
2021/12/15 02:51:43;;;;;;;19.33;14.73;;;7.70;73.30;;;;;;5086998;28;20071;-78
2021/12/15 02:54:12;;;;;;;17.40;13.20;;;7.80;73.30;;;;;;5077487;28;20032;-78
2021/12/15 02:56:38;;;;;;;17.90;13.38;;;7.80;73.30;;;;;;5055204;28;20032;-78
2021/12/15 02:59:06;;;;;;;19.75;12.85;;;7.80;73.20;;;;;;5086889;28;20024;-78
2021/12/15 03:01:53;;;;;;;18.23;12.73;;;7.90;73.10;;;;;;5088912;28;20399;-78
2021/12/15 03:07:10;;;;;;;15.20;12.43;;;7.80;73.00;;;;;;5087516;28;20085;-78
2021/12/15 03:18:00;;;;;;;17.00;12.50;;;7.90;72.90;;;;;;5088754;28;20432;-78
2021/12/15 03:20:29;;;;;;;14.85;11.32;;;7.90;72.80;;;;;;5081021;28;20055;-78
2021/12/15 03:22:55;;;;;;;14.75;11.40;;;8.00;72.80;;;;;;5077593;28;20028;-77
2021/12/15 03:25:21;;;;;;;14.63;10.45;;;8.00;72.90;;;;;;5083621;28;20024;-77
2021/12/15 03:36:23;;;;;;;12.95;10.13;;;8.00;72.80;;;;;;5045969;28;20028;-77
2021/12/15 03:38:49;;;;;;;11.90;9.63;;;8.00;72.70;;;;;;5090830;28;20032;-77
2021/12/15 03:41:15;;;;;;;13.40;10.40;;;8.00;72.70;;;;;;5079278;28;20097;-77
2021/12/15 03:43:41;;;;;;;14.55;11.38;;;8.10;72.70;;;;;;5087197;28;20033;-77
2021/12/15 03:46:12;;;;;;;12.80;9.95;;;8.00;72.80;;;;;;5085612;28;20112;-78
2021/12/15 03:48:42;;;;;;;12.25;9.77;;;8.00;73.00;;;;;;5079356;28;20123;-78
2021/12/15 03:51:08;;;;;;;;;;;8.00;72.90;;;;;;5077005;28;20467;-78
2021/12/15 03:53:34;;;;;;;24.20;15.38;;;7.80;72.80;;;;;;5075033;28;19948;-77
2021/12/15 03:56:02;;;;;;;18.65;12.95;;;7.60;73.50;;;;;;5077240;28;20461;-78
2021/12/15 03:58:27;;;;;;;18.45;14.18;;;7.40;74.00;;;;;;5089117;28;20464;-78
2021/12/15 04:00:58;;;;;;;23.15;17.15;;;7.40;74.10;;;;;;5077873;28;20103;-79
2021/12/15 04:03:33;;;;;;;18.70;15.48;;;7.30;74.10;;;;;;5089096;28;20028;-78
2021/12/15 04:06:02;;;;;;;23.10;17.20;;;7.20;74.50;;;;;;5077140;28;20029;-78
2021/12/15 04:08:30;;;;;;;21.45;16.35;;;7.20;74.40;;;;;;5081638;28;20521;-78
2021/12/15 04:10:57;;;;;;;24.33;17.88;;;7.30;74.30;;;;;;5077722;28;20388;-79
2021/12/15 04:13:24;;;;;;;21.50;16.80;;;7.30;74.20;;;;;;5069072;28;20016;-78
2021/12/15 04:15:56;;;;;;;26.15;18.17;;;7.30;74.10;;;;;;5087993;28;20157;-78
2021/12/15 04:18:22;;;;;;;25.60;18.20;;;7.30;73.90;;;;;;5063065;28;20027;-78
2021/12/15 04:20:48;;;;;;;24.88;17.55;;;7.30;73.80;;;;;;5073048;28;20032;-78
2021/12/15 04:23:20;;;;;;;23.13;17.95;;;7.30;73.80;;;;;;5077932;28;20099;-78
2021/12/15 04:25:49;;;;;;;24.58;17.73;;;7.30;73.70;;;;;;5094069;28;20024;-78
2021/12/15 04:28:33;;;;;;;21.92;17.95;;;7.30;73.60;;;;;;5081595;28;20032;-79
2021/12/15 04:31:04;;;;;;;24.77;17.98;;;7.40;73.60;;;;;;5090718;28;20118;-79
2021/12/15 04:33:32;;;;;;;26.75;18.70;;;7.40;73.60;;;;;;5060833;28;20510;-79
2021/12/15 04:36:01;;;;;;;24.75;17.92;;;7.30;73.60;;;;;;5066065;28;20043;-78
2021/12/15 04:38:29;;;;;;;24.38;18.45;;;7.30;73.60;;;;;;5079485;28;20048;-77
2021/12/15 04:40:56;;;;;;;24.70;17.88;;;7.30;73.60;;;;;;5090586;28;20111;-77
2021/12/15 04:43:22;;;;;;;23.55;17.25;;;7.30;73.90;;;;;;5078953;28;20020;-77
2021/12/15 04:45:48;;;;;;;25.95;17.83;;;7.30;73.90;;;;;;5080548;28;20435;-77
2021/12/15 04:48:14;;;;;;;23.88;17.83;;;7.30;73.80;;;;;;5086008;28;20082;-78
2021/12/15 04:50:41;;;;;;;22.05;17.60;;;7.40;73.70;;;;;;5078298;28;20078;-78
2021/12/15 04:53:08;;;;;;;22.42;17.73;;;7.40;73.70;;;;;;5074270;28;20028;-79
2021/12/15 04:55:37;;;;;;;23.05;16.60;;;7.40;73.70;;;;;;5087498;28;20049;-79
2021/12/15 04:58:05;;;;;;;22.23;16.20;;;7.50;73.70;;;;;;5075490;28;20078;-79
2021/12/15 05:00:36;;;;;;;23.52;16.92;;;7.50;73.70;;;;;;5069594;28;20082;-77
2021/12/15 05:03:03;;;;;;;22.63;16.35;;;7.50;73.70;;;;;;5076509;28;20444;-76
2021/12/15 05:05:29;;;;;;;27.23;18.38;;;7.50;73.80;;;;;;5087909;28;20107;-76
2021/12/15 05:07:56;;;;;;;21.00;15.90;;;7.50;73.70;;;;;;5077421;28;20033;-77
2021/12/15 05:10:24;;;;;;;23.02;16.40;;;7.50;73.70;;;;;;5078071;28;20025;-76
2021/12/15 05:12:50;;;;;;;20.13;15.73;;;7.50;73.90;;;;;;5068877;28;20075;-76
2021/12/15 05:15:16;;;;;;;23.38;16.08;;;7.50;73.90;;;;;;5080025;28;20027;-76
2021/12/15 05:17:42;;;;;;;22.75;16.70;;;7.50;73.80;;;;;;5072525;28;20035;-77
2021/12/15 05:20:10;;;;;;;19.95;15.70;;;7.50;73.70;;;;;;5073069;28;20115;-76
2021/12/15 05:22:37;;;;;;;20.75;15.52;;;7.50;73.80;;;;;;5072727;28;20090;-77
2021/12/15 05:25:05;;;;;;;21.35;15.30;;;7.50;73.90;;;;;;5053132;28;20037;-75
2021/12/15 05:27:31;;;;;;;20.55;16.00;;;7.50;74.00;;;;;;5071191;28;20103;-75
2021/12/15 05:29:57;;;;;;;20.58;14.80;;;7.40;74.20;;;;;;5061816;28;20120;-74
2021/12/15 05:32:23;;;;;;;25.05;17.90;;;7.20;74.80;;;;;;5053374;28;20054;-74
2021/12/15 05:34:53;;;;;;;21.58;17.10;;;7.20;74.70;;;;;;5071479;28;20449;-74
2021/12/15 05:37:21;;;;;;;23.17;17.15;;;7.20;74.80;;;;;;5061950;28;20157;-74
2021/12/15 05:39:49;;;;;;;23.75;17.38;;;7.20;74.80;;;;;;5073018;28;20036;-74
2021/12/15 05:42:17;;;;;;;23.55;17.15;;;7.20;74.70;;;;;;5073361;28;20021;-74
2021/12/15 05:44:43;;;;;;;22.38;17.42;;;7.20;74.70;;;;;;5051249;28;20036;-73
2021/12/15 05:47:09;;;;;;;21.17;16.65;;;7.20;74.60;;;;;;5075427;28;20036;-73
2021/12/15 05:49:35;;;;;;;24.85;16.45;;;7.20;74.50;;;;;;5072302;28;20040;-75
2021/12/15 05:52:01;;;;;;;22.15;15.88;;;7.20;74.40;;;;;;5072410;28;20119;-78
2021/12/15 05:54:27;;;;;;;21.67;14.82;;;7.20;74.60;;;;;;5072463;28;20032;-78
2021/12/15 05:56:53;;;;;;;18.92;14.55;;;7.10;74.70;;;;;;5073255;28;20107;-78
2021/12/15 05:59:19;;;;;;;21.65;16.25;;;7.10;75.10;;;;;;5072365;28;20104;-78
2021/12/15 06:01:45;;;;;;;22.90;15.75;;;7.00;75.20;;;;;;5074154;28;20036;-78
2021/12/15 06:04:13;;;;;;;20.83;16.60;;;7.00;75.30;;;;;;5064716;28;20029;-78
2021/12/15 06:06:39;;;;;;;19.67;14.57;;;7.10;75.20;;;;;;5074326;28;20369;-78
2021/12/15 06:09:06;;;;;;;21.20;15.40;;;7.10;75.20;;;;;;5056818;28;20031;-77
2021/12/15 06:11:33;;;;;;;26.38;17.00;;;7.00;75.30;;;;;;5087867;28;20468;-77
2021/12/15 06:13:59;;;;;;;19.42;14.63;;;6.90;75.90;;;;;;5078940;28;20086;-77
2021/12/15 06:16:25;;;;;;;21.58;16.08;;;6.70;76.20;;;;;;5079069;28;20016;-77
2021/12/15 06:18:52;;;;;;;23.08;16.08;;;6.80;76.00;;;;;;5058082;28;20035;-77
2021/12/15 06:21:19;;;;;;;22.60;16.92;;;6.80;76.00;;;;;;5070565;28;20031;-76
2021/12/15 06:23:47;;;;;;;20.60;16.88;;;6.90;76.30;;;;;;5054566;28;20155;-76
2021/12/15 06:26:13;;;;;;;23.50;17.45;;;6.90;76.00;;;;;;5084204;28;20064;-76
2021/12/15 06:28:38;;;;;;;24.50;17.55;;;7.00;75.70;;;;;;5069434;28;20429;-76
2021/12/15 06:31:07;;;;;;;23.42;16.48;;;6.90;75.60;;;;;;5079326;28;20029;-76
2021/12/15 06:33:35;;;;;;;23.33;17.08;;;6.90;76.30;;;;;;5069177;28;20036;-82
2021/12/15 06:36:03;;;;;;;23.45;16.73;;;6.90;75.70;;;;;;5075015;28;20494;-81
2021/12/15 06:38:40;;;;;;;21.80;16.60;;;6.90;75.80;;;;;;5062391;28;20135;-81
2021/12/15 06:41:08;;;;;;;21.20;14.73;;;6.80;75.90;;;;;;5053149;28;20474;-81
2021/12/15 06:43:35;;;;;;;19.38;14.50;;;6.70;76.30;;;;;;5072697;28;20509;-81
2021/12/15 06:46:27;;;;;;;18.48;14.23;;;6.70;76.50;;;;;;5053437;28;20116;-82
2021/12/15 06:59:48;;;;;;;19.13;12.98;;;6.80;76.30;;;;;;5069812;28;20039;-75
2021/12/15 07:02:15;;;;;;;26.48;17.52;;;6.70;76.30;;;;;;5071377;28;20032;-75
2021/12/15 07:04:40;;;;;;;23.55;15.52;;;6.70;76.60;;;;;;5064778;28;20485;-79
2021/12/15 07:07:06;;;;;;;21.90;15.82;;;6.70;76.80;;;;;;5072082;28;20054;-80
2021/12/15 07:09:37;;;;;;;24.13;16.70;;;6.70;77.00;;;;;;5069731;28;20144;-79
2021/12/15 07:12:15;;;;;;;25.73;17.88;;;6.60;76.90;;;;;;5054303;28;20047;-77
2021/12/15 07:14:56;;;;;;;25.52;17.80;;;6.40;77.70;;;;;;5070328;28;20032;-77
2021/12/15 07:17:25;;;;;;;21.13;15.07;;;6.40;77.70;;;;;;5055951;28;20025;-83
2021/12/15 07:20:41;;;;;;;23.20;17.52;;;6.40;77.70;;;;;;5075141;28;20021;-79
2021/12/15 07:22:44;;;;;;;22.55;16.42;;;6.50;77.30;;;;;;5060367;28;20040;-78
2021/12/15 07:25:14;;;;;;;24.98;17.48;;;6.60;76.90;;;;;;5072682;28;20028;-78
2021/12/15 07:27:40;;;;;;;24.50;18.17;;;6.70;76.60;;;;;;5073942;28;20035;-82
2021/12/15 07:30:07;;;;;;;26.20;17.45;;;6.80;76.20;;;;;;5075110;28;20373;-82
2021/12/15 07:32:33;;;;;;;23.55;17.02;;;6.80;75.90;;;;;;5053506;28;20062;-83
2021/12/15 07:34:59;;;;;;;23.05;16.90;;;6.90;75.90;;;;;;5076436;28;20051;-83
2021/12/15 07:37:25;;;;;;;24.00;16.77;;;6.90;75.70;;;;;;5076191;28;20028;-82
2021/12/15 07:39:57;;;;;;;26.70;17.40;;;6.90;75.60;;;;;;5075182;28;20437;-82
2021/12/15 07:42:33;;;;;;;23.20;16.80;;;7.00;75.50;;;;;;5070454;28;20350;-82
2021/12/15 07:44:59;;;;;;;20.70;15.77;;;7.00;75.40;;;;;;5069208;28;20025;-82
2021/12/15 07:47:25;;;;;;;20.42;15.60;;;7.00;75.50;;;;;;5062320;28;20489;-82
2021/12/15 07:49:51;;;;;;;21.63;16.08;;;6.90;75.70;;;;;;5066677;28;20040;-82
2021/12/15 07:52:17;;;;;;;24.63;16.95;;;6.90;75.80;;;;;;5070589;28;20037;-82
2021/12/15 07:54:43;;;;;;;21.13;15.38;;;6.90;75.80;;;;;;5055754;28;20040;-82
2021/12/15 07:57:12;;;;;;;19.50;15.40;;;6.90;75.90;;;;;;5074388;28;20016;-79
2021/12/15 07:59:38;;;;;;;23.75;16.77;;;6.90;75.90;;;;;;5074243;28;20081;-79
2021/12/15 08:02:05;;;;;;;21.83;15.07;;;6.90;76.10;;;;;;5073897;28;20031;-78
2021/12/15 08:04:30;;;;;;;21.05;15.18;;;6.80;76.50;;;;;;5056082;28;20024;-78
2021/12/15 08:06:56;;;;;;;18.60;14.07;;;6.80;76.70;;;;;;5074690;28;20031;-81
2021/12/15 08:09:22;;;;;;;80.43;55.47;;;6.80;76.80;;;;;;5075019;28;20372;-83
2021/12/15 08:11:49;;;;;;;91.55;64.13;;;6.90;76.90;;;;;;5056174;28;20389;-82
2021/12/15 08:14:15;;;;;;;62.47;44.95;;;7.00;76.60;;;;;;5073640;28;20028;-81
2021/12/15 08:16:41;;;;;;;29.27;21.17;;;7.10;76.40;;;;;;5064845;28;20025;-81
2021/12/15 08:19:08;;;;;;;23.08;16.98;;;7.20;76.10;;;;;;5053262;28;20694;-81
2021/12/15 08:21:34;;;;;;;21.23;15.85;;;7.00;75.90;;;;;;5073052;28;20032;-81
2021/12/15 08:24:00;;;;;;;18.75;14.40;;;7.00;76.40;;;;;;5073316;28;20047;-81
2021/12/15 08:26:26;;;;;;;19.65;14.60;;;7.10;76.10;;;;;;5056188;28;20444;-82
2021/12/15 08:28:53;;;;;;;16.75;13.55;;;7.20;76.10;;;;;;5073975;28;20060;-82
2021/12/15 08:31:19;;;;;;;17.35;13.48;;;7.30;76.10;;;;;;5074061;28;20099;-82
2021/12/15 08:33:45;;;;;;;17.83;14.07;;;7.50;75.90;;;;;;5055420;28;20469;-81
2021/12/15 08:36:14;;;;;;;20.55;14.35;;;7.60;75.80;;;;;;5055394;28;20031;-81
2021/12/15 08:38:42;;;;;;;20.63;13.38;;;7.70;75.70;;;;;;5073585;28;20024;-81
2021/12/15 08:41:12;;;;;;;18.70;14.35;;;7.80;75.50;;;;;;5080856;28;20035;-81
2021/12/15 08:43:38;;;;;;;18.98;14.10;;;7.80;75.10;;;;;;5061680;28;20036;-81
2021/12/15 08:46:11;;;;;;;23.52;17.13;;;7.90;74.80;;;;;;5069037;28;20130;-82
2021/12/15 08:48:39;;;;;;;24.55;17.65;;;7.70;74.60;;;;;;5071441;28;20033;-83
2021/12/15 08:51:07;;;;;;;18.35;14.52;;;7.60;75.20;;;;;;5072154;28;20032;-77
2021/12/15 08:53:34;;;;;;;17.17;13.50;;;7.60;75.50;;;;;;5058891;28;20484;-78
2021/12/15 08:56:00;;;;;;;21.98;16.23;;;7.60;75.50;;;;;;5071714;28;20021;-78
2021/12/15 08:58:26;;;;;;;22.23;15.20;;;7.80;75.50;;;;;;5051910;28;20031;-78
2021/12/15 09:00:56;;;;;;;20.85;15.30;;;7.90;75.60;;;;;;5055533;28;20399;-77
2021/12/15 09:03:23;;;;;;;21.35;15.45;;;8.10;75.60;;;;;;5072582;28;20037;-77
2021/12/15 09:05:52;;;;;;;21.20;14.88;;;8.20;75.50;;;;;;5072982;28;20503;-77
2021/12/15 09:08:19;;;;;;;24.10;15.30;;;8.30;75.30;;;;;;5073429;28;20127;-77
2021/12/15 09:10:46;;;;;;;21.67;15.40;;;8.40;75.20;;;;;;5073162;28;20032;-77
2021/12/15 09:13:13;;;;;;;18.88;14.35;;;8.50;75.00;;;;;;5063429;28;20102;-79
2021/12/15 09:15:42;;;;;;;18.02;13.13;;;8.70;74.80;;;;;;5055171;28;20047;-82
2021/12/15 09:18:09;;;;;;;17.38;12.88;;;8.80;74.50;;;;;;5073226;28;20439;-78
2021/12/15 09:20:37;;;;;;;16.50;12.55;;;8.90;74.30;;;;;;5072617;28;20028;-82
2021/12/15 09:23:08;;;;;;;16.92;11.18;;;9.00;74.20;;;;;;5072911;28;20086;-82
2021/12/15 09:25:34;;;;;;;16.02;10.65;;;9.10;73.40;;;;;;5068987;28;20476;-83
2021/12/15 09:28:00;;;;;;;13.77;9.85;;;9.30;73.60;;;;;;5051195;28;20036;-82
